createdAt,value
2023-03-25T00:01:40.725Z,3.00
2023-03-25T00:04:07.262Z,2.70
2023-03-25T00:06:36.496Z,2.70
2023-03-25T00:09:04.319Z,2.70
2023-03-25T00:11:31.164Z,2.53
2023-03-25T00:13:58.101Z,2.70
2023-03-25T00:16:24.596Z,2.95
2023-03-25T00:18:51.554Z,2.80
2023-03-25T00:21:18.945Z,2.72
2023-03-25T00:23:45.712Z,3.08
2023-03-25T00:26:12.745Z,2.70
2023-03-25T00:28:39.794Z,3.33
2023-03-25T00:31:07.948Z,3.03
2023-03-25T00:33:35.376Z,2.80
2023-03-25T00:36:04.526Z,2.83
2023-03-25T00:38:35.568Z,3.47
2023-03-25T00:41:31.892Z,3.33
2023-03-25T00:43:59.724Z,3.33
2023-03-25T00:46:29.508Z,3.00
2023-03-25T00:48:56.868Z,3.30
2023-03-25T00:51:23.756Z,2.90
2023-03-25T00:53:55.002Z,3.20
2023-03-25T00:56:25.528Z,3.08
2023-03-25T00:58:52.189Z,3.10
2023-03-25T01:01:23.763Z,2.80
2023-03-25T01:03:57.805Z,3.22
2023-03-25T01:06:28.942Z,2.83
2023-03-25T01:08:56.558Z,2.85
2023-03-25T01:11:24.762Z,2.75
2023-03-25T01:13:51.613Z,3.03
2023-03-25T01:16:20.271Z,2.80
2023-03-25T01:18:46.831Z,2.70
2023-03-25T01:21:13.353Z,2.60
2023-03-25T01:23:39.961Z,2.63
2023-03-25T01:26:06.752Z,2.63
2023-03-25T01:28:33.497Z,2.60
2023-03-25T01:31:04.657Z,2.92
2023-03-25T01:33:32.598Z,2.65
2023-03-25T01:35:59.895Z,2.72
2023-03-25T01:38:27.414Z,2.78
2023-03-25T01:40:54.506Z,2.92
2023-03-25T01:43:21.554Z,2.80
2023-03-25T01:45:49.165Z,3.53
2023-03-25T01:48:15.860Z,2.78
2023-03-25T01:50:43.811Z,3.22
2023-03-25T01:53:10.342Z,2.53
2023-03-25T01:55:37.794Z,2.50
2023-03-25T01:58:10.549Z,2.60
2023-03-25T02:00:40.967Z,2.60
2023-03-25T02:03:11.399Z,2.28
2023-03-25T02:05:56.848Z,2.30
2023-03-25T02:08:24.093Z,1.80
2023-03-25T02:10:52.182Z,1.85
2023-03-25T02:13:22.311Z,1.60
2023-03-25T02:15:55.351Z,1.85
2023-03-25T02:18:33.216Z,1.40
2023-03-25T02:21:23.328Z,1.50
2023-03-25T02:24:10.066Z,1.60
2023-03-25T02:27:01.282Z,1.10
2023-03-25T02:29:34.256Z,1.10
2023-03-25T02:32:12.941Z,1.10
2023-03-25T02:34:41.794Z,1.00
2023-03-25T02:37:11.725Z,0.90
2023-03-25T02:39:41.335Z,0.90
2023-03-25T02:42:14.599Z,0.90
2023-03-25T02:44:55.222Z,1.00
2023-03-25T02:47:23.561Z,0.80
2023-03-25T02:49:56.050Z,1.00
2023-03-25T02:52:29.838Z,1.00
2023-03-25T02:55:01.917Z,0.80
2023-03-25T02:57:31.172Z,0.88
2023-03-25T02:59:57.988Z,0.93
2023-03-25T03:02:26.319Z,0.93
2023-03-25T03:04:54.359Z,0.80
2023-03-25T03:07:29.153Z,0.70
2023-03-25T03:09:55.886Z,0.80
2023-03-25T03:12:32.440Z,0.80
2023-03-25T03:15:17.639Z,0.98
2023-03-25T03:18:02.495Z,1.00
2023-03-25T03:20:32.702Z,1.10
2023-03-25T03:23:06.081Z,0.90
2023-03-25T03:25:39.153Z,0.80
2023-03-25T03:28:05.698Z,0.80
2023-03-25T03:30:38.349Z,0.85
2023-03-25T03:33:15.409Z,0.75
2023-03-25T03:35:50.611Z,0.93
2023-03-25T03:38:19.172Z,1.10
2023-03-25T03:40:49.442Z,0.77
2023-03-25T03:43:19.039Z,0.88
2023-03-25T03:45:48.758Z,1.05
2023-03-25T03:48:35.632Z,0.73
2023-03-25T03:51:04.524Z,0.70
2023-03-25T03:53:33.350Z,0.75
2023-03-25T03:56:06.657Z,0.90
2023-03-25T03:58:36.414Z,0.70
2023-03-25T04:01:03.228Z,0.55
2023-03-25T04:03:59.083Z,0.57
2023-03-25T04:06:46.794Z,0.50
2023-03-25T04:09:18.660Z,0.50
2023-03-25T04:11:56.613Z,0.50
2023-03-25T04:14:26.430Z,0.60
2023-03-25T04:16:54.422Z,0.50
2023-03-25T04:19:21.191Z,0.52
2023-03-25T04:21:50.868Z,0.52
2023-03-25T04:24:19.430Z,0.40
2023-03-25T04:26:46.369Z,0.50
2023-03-25T04:29:17.025Z,0.40
2023-03-25T04:31:46.733Z,0.35
2023-03-25T04:34:16.495Z,0.30
2023-03-25T04:36:43.243Z,0.40
2023-03-25T04:39:11.869Z,0.77
2023-03-25T04:41:38.972Z,0.47
2023-03-25T04:44:08.006Z,0.30
2023-03-25T04:46:36.408Z,0.40
2023-03-25T04:49:13.943Z,0.30
2023-03-25T04:51:44.679Z,0.40
2023-03-25T04:54:11.492Z,0.25
2023-03-25T04:56:39.563Z,0.28
2023-03-25T04:59:06.520Z,0.40
2023-03-25T05:01:34.230Z,0.28
2023-03-25T05:04:07.771Z,0.30
2023-03-25T05:06:35.149Z,0.50
2023-03-25T05:09:04.447Z,0.40
2023-03-25T05:11:32.354Z,0.30
2023-03-25T05:13:58.823Z,0.40
2023-03-25T05:16:26.775Z,0.40
2023-03-25T05:18:53.316Z,0.43
2023-03-25T05:21:19.840Z,0.40
2023-03-25T05:23:46.386Z,0.50
2023-03-25T05:26:13.071Z,0.47
2023-03-25T05:28:40.341Z,0.32
2023-03-25T05:31:10.300Z,0.40
2023-03-25T05:33:45.830Z,0.65
2023-03-25T05:38:41.700Z,0.65
2023-03-25T05:41:10.687Z,0.60
2023-03-25T05:43:37.893Z,0.50
2023-03-25T05:46:05.368Z,0.50
2023-03-25T05:48:33.114Z,0.57
2023-03-25T05:51:03.690Z,0.60
2023-03-25T05:53:31.426Z,0.60
2023-03-25T05:55:58.146Z,0.60
2023-03-25T05:58:25.128Z,0.60
2023-03-25T06:00:51.972Z,0.55
2023-03-25T06:03:21.016Z,0.50
2023-03-25T06:05:48.704Z,0.60
2023-03-25T06:08:17.148Z,0.47
2023-03-25T06:10:47.146Z,0.70
2023-03-25T06:13:13.921Z,0.60
2023-03-25T06:15:41.897Z,0.60
2023-03-25T06:18:10.628Z,0.70
2023-03-25T06:20:37.222Z,0.65
2023-03-25T06:23:03.664Z,0.52
2023-03-25T06:25:31.302Z,0.80
2023-03-25T06:28:01.784Z,0.70
2023-03-25T06:30:28.399Z,0.45
2023-03-25T06:32:55.881Z,0.70
2023-03-25T06:35:22.694Z,0.70
2023-03-25T06:37:49.818Z,0.70
2023-03-25T06:40:39.291Z,0.77
2023-03-25T06:43:06.813Z,0.85
2023-03-25T06:45:33.696Z,0.80
2023-03-25T06:48:05.647Z,0.60
2023-03-25T06:50:32.516Z,0.70
2023-03-25T06:52:58.989Z,0.77
2023-03-25T06:55:25.540Z,0.60
2023-03-25T06:57:56.353Z,0.90
2023-03-25T07:00:24.123Z,1.00
2023-03-25T07:02:51.017Z,0.90
2023-03-25T07:05:20.783Z,0.90
2023-03-25T07:07:55.846Z,0.70
2023-03-25T07:10:22.616Z,0.60
2023-03-25T07:12:49.278Z,0.65
2023-03-25T07:15:15.849Z,0.65
2023-03-25T07:17:44.601Z,1.13
2023-03-25T07:20:12.512Z,1.02
2023-03-25T07:22:40.351Z,0.80
2023-03-25T07:25:06.963Z,1.17
2023-03-25T07:27:33.672Z,0.80
2023-03-25T07:30:06.495Z,0.70
2023-03-25T07:32:33.766Z,0.80
2023-03-25T07:35:00.502Z,0.60
2023-03-25T07:37:27.087Z,0.93
2023-03-25T07:39:53.562Z,0.70
2023-03-25T07:42:20.249Z,0.70
2023-03-25T07:45:03.045Z,0.50
2023-03-25T07:47:32.488Z,0.50
2023-03-25T07:49:59.084Z,0.55
2023-03-25T07:52:25.483Z,0.70
2023-03-25T07:54:52.275Z,0.68
2023-03-25T07:57:18.710Z,0.52
2023-03-25T07:59:45.315Z,0.65
2023-03-25T08:02:15.060Z,0.50
2023-03-25T08:04:42.163Z,0.57
2023-03-25T08:07:09.134Z,0.50
2023-03-25T08:09:36.183Z,0.45
2023-03-25T08:12:02.629Z,0.77
2023-03-25T08:14:29.092Z,0.68
2023-03-25T08:16:55.720Z,0.88
2023-03-25T08:19:22.173Z,0.90
2023-03-25T08:21:48.696Z,1.05
2023-03-25T08:24:15.813Z,0.98
2023-03-25T08:26:43.677Z,0.88
2023-03-25T08:29:11.645Z,1.10
2023-03-25T08:31:39.141Z,0.60
2023-03-25T08:34:06.206Z,1.20
2023-03-25T08:36:32.824Z,1.13
2023-03-25T08:38:59.437Z,1.10
2023-03-25T08:41:26.550Z,1.23
2023-03-25T08:43:52.948Z,0.95
2023-03-25T08:46:19.554Z,0.70
2023-03-25T08:48:46.815Z,0.80
2023-03-25T08:51:14.350Z,0.60
2023-03-25T08:53:41.116Z,0.93
2023-03-25T08:56:08.275Z,0.93
2023-03-25T08:58:34.743Z,0.70
2023-03-25T09:01:01.198Z,0.60
2023-03-25T09:03:27.936Z,0.80
2023-03-25T09:05:54.850Z,0.80
2023-03-25T09:08:21.546Z,0.70
2023-03-25T09:10:48.354Z,0.70
2023-03-25T09:13:14.929Z,0.70
2023-03-25T09:15:41.958Z,0.50
2023-03-25T09:18:08.925Z,0.70
2023-03-25T09:20:35.545Z,0.50
2023-03-25T09:23:02.728Z,0.70
2023-03-25T09:25:30.100Z,0.47
2023-03-25T09:27:56.560Z,0.60
2023-03-25T09:30:23.876Z,0.52
2023-03-25T09:32:50.569Z,0.60
2023-03-25T09:35:17.177Z,0.98
2023-03-25T09:37:44.214Z,0.50
2023-03-25T09:40:12.958Z,0.77
2023-03-25T09:42:48.973Z,0.30
2023-03-25T09:45:32.848Z,0.50
2023-03-25T09:48:22.770Z,0.50
2023-03-25T09:50:49.715Z,0.52
2023-03-25T09:53:25.335Z,0.50
2023-03-25T09:55:52.792Z,0.60
2023-03-25T09:58:38.366Z,1.00
2023-03-25T10:01:28.510Z,0.82
2023-03-25T10:03:55.388Z,0.60
2023-03-25T10:06:26.967Z,0.40
2023-03-25T10:09:05.414Z,0.60
2023-03-25T10:11:52.462Z,0.40
2023-03-25T10:14:33.084Z,0.30
2023-03-25T10:17:05.794Z,0.50
2023-03-25T10:19:54.173Z,0.50
2023-03-25T10:22:20.873Z,0.40
2023-03-25T10:24:52.995Z,0.40
2023-03-25T10:27:24.083Z,0.30
2023-03-25T10:29:59.505Z,0.30
2023-03-25T10:32:31.953Z,0.50
2023-03-25T10:34:59.477Z,0.40
2023-03-25T10:37:29.761Z,0.40
2023-03-25T10:39:59.685Z,0.30
2023-03-25T10:42:28.772Z,0.52
2023-03-25T10:44:55.461Z,0.35
2023-03-25T10:47:25.138Z,0.55
2023-03-25T10:49:52.475Z,0.28
2023-03-25T10:52:19.186Z,0.30
2023-03-25T10:54:48.934Z,0.25
2023-03-25T10:57:18.710Z,0.50
2023-03-25T10:59:51.526Z,0.52
2023-03-25T11:02:22.886Z,0.20
2023-03-25T11:04:52.453Z,0.30
2023-03-25T11:07:20.192Z,0.30
2023-03-25T11:09:47.265Z,0.60
2023-03-25T11:12:17.799Z,0.50
2023-03-25T11:14:44.505Z,0.40
2023-03-25T11:17:14.947Z,0.30
2023-03-25T11:19:44.869Z,0.50
2023-03-25T11:22:31.815Z,0.50
2023-03-25T11:25:00.916Z,0.50
2023-03-25T11:27:28.685Z,0.50
2023-03-25T11:29:56.957Z,0.20
2023-03-25T11:32:25.026Z,0.40
2023-03-25T11:34:53.428Z,0.47
2023-03-25T11:37:22.225Z,0.40
2023-03-25T11:39:55.236Z,0.50
2023-03-25T11:42:34.293Z,0.47
2023-03-25T11:45:02.264Z,0.50
2023-03-25T11:47:38.852Z,0.40
2023-03-25T11:50:06.949Z,0.45
2023-03-25T11:52:42.809Z,0.30
2023-03-25T11:55:18.738Z,0.40
2023-03-25T11:57:47.838Z,0.40
2023-03-25T12:00:23.044Z,0.43
2023-03-25T12:02:59.302Z,0.50
2023-03-25T12:05:26.002Z,0.40
2023-03-25T12:07:59.997Z,0.50
2023-03-25T12:10:40.951Z,0.40
2023-03-25T12:13:11.328Z,0.40
2023-03-25T12:15:39.385Z,0.52
2023-03-25T12:18:07.478Z,0.50
2023-03-25T12:20:41.319Z,0.60
2023-03-25T12:23:19.883Z,0.63
2023-03-25T12:26:02.556Z,0.68
2023-03-25T12:28:32.393Z,0.50
2023-03-25T12:31:05.079Z,0.52
2023-03-25T12:33:46.330Z,0.65
2023-03-25T12:36:28.309Z,0.50
2023-03-25T12:38:57.744Z,0.50
2023-03-25T12:41:24.197Z,0.50
2023-03-25T12:44:03.579Z,1.02
2023-03-25T12:46:36.015Z,0.70
2023-03-25T12:49:08.574Z,0.73
2023-03-25T12:51:52.516Z,1.10
2023-03-25T12:54:25.296Z,0.70
2023-03-25T12:57:24.776Z,0.85
2023-03-25T12:59:51.626Z,0.68
2023-03-25T13:02:33.395Z,0.82
2023-03-25T13:05:06.325Z,1.00
2023-03-25T13:07:38.023Z,0.80
2023-03-25T13:10:08.329Z,1.08
2023-03-25T13:12:37.773Z,0.90
2023-03-25T13:15:07.778Z,0.60
2023-03-25T13:17:37.516Z,0.75
2023-03-25T13:20:09.593Z,1.00
2023-03-25T13:22:39.687Z,0.73
2023-03-25T13:25:08.364Z,0.98
2023-03-25T13:27:39.114Z,1.08
2023-03-25T13:30:09.035Z,0.93
2023-03-25T13:32:50.168Z,0.95
2023-03-25T13:35:16.825Z,1.00
2023-03-25T13:37:46.089Z,0.93
2023-03-25T13:40:25.003Z,1.15
2023-03-25T13:42:51.731Z,0.95
2023-03-25T13:45:19.305Z,0.90
2023-03-25T13:48:05.001Z,0.93
2023-03-25T13:50:34.198Z,0.57
2023-03-25T13:53:03.496Z,0.30
2023-03-25T13:55:53.085Z,0.20
2023-03-25T13:58:38.669Z,0.13
2023-03-25T14:01:09.240Z,0.20
2023-03-25T14:03:41.799Z,0.22
2023-03-25T14:06:08.857Z,0.30
2023-03-25T14:08:59.447Z,0.20
2023-03-25T14:11:25.951Z,0.50
2023-03-25T14:13:55.063Z,0.40
2023-03-25T14:16:27.612Z,0.40
2023-03-25T14:18:56.001Z,0.50
2023-03-25T14:21:38.356Z,0.30
2023-03-25T14:24:11.522Z,0.30
2023-03-25T14:26:42.934Z,0.38
2023-03-25T14:29:17.051Z,0.40
2023-03-25T14:31:59.317Z,0.43
2023-03-25T14:34:28.252Z,0.25
2023-03-25T14:36:55.718Z,0.30
2023-03-25T14:39:28.338Z,0.30
2023-03-25T14:42:07.244Z,0.30
2023-03-25T14:44:35.102Z,0.30
2023-03-25T14:47:02.442Z,0.50
2023-03-25T14:49:54.053Z,0.60
2023-03-25T14:52:31.342Z,0.50
2023-03-25T14:54:59.945Z,0.50
2023-03-25T14:57:28.894Z,0.40
2023-03-25T14:59:58.409Z,0.60
2023-03-25T15:02:27.179Z,0.50
2023-03-25T15:04:58.179Z,0.47
2023-03-25T15:07:39.922Z,0.40
2023-03-25T15:10:08.191Z,0.60
2023-03-25T15:12:37.297Z,0.43
2023-03-25T15:15:08.886Z,0.47
2023-03-25T15:17:43.676Z,0.55
2023-03-25T15:20:10.663Z,0.50
2023-03-25T15:22:37.914Z,0.60
2023-03-25T15:25:19.426Z,0.63
2023-03-25T15:27:46.215Z,0.70
2023-03-25T15:30:25.085Z,0.30
2023-03-25T15:33:11.166Z,0.60
2023-03-25T15:35:56.492Z,0.63
2023-03-25T15:38:38.131Z,0.47
2023-03-25T15:41:12.990Z,0.50
2023-03-25T15:46:24.008Z,0.60
2023-03-25T15:48:59.455Z,0.50
2023-03-25T15:52:00.513Z,0.70
2023-03-25T15:54:32.504Z,0.70
2023-03-25T15:57:05.989Z,0.57
2023-03-25T15:59:38.624Z,0.70
2023-03-25T16:02:13.246Z,0.60
2023-03-25T16:04:44.855Z,0.50
2023-03-25T16:07:13.233Z,0.80
2023-03-25T16:09:47.106Z,0.70
2023-03-25T16:12:22.072Z,0.68
2023-03-25T16:14:49.522Z,0.60
2023-03-25T16:17:17.729Z,0.70
2023-03-25T16:19:48.980Z,0.60
2023-03-25T16:22:17.684Z,0.60
2023-03-25T16:24:44.874Z,0.50
2023-03-25T16:27:13.441Z,0.57
2023-03-25T16:29:41.286Z,0.60
2023-03-25T16:32:17.521Z,0.43
2023-03-25T16:34:44.097Z,0.70
2023-03-25T16:37:11.877Z,0.50
2023-03-25T16:39:38.400Z,0.90
2023-03-25T16:42:10.824Z,0.80
2023-03-25T16:44:37.966Z,0.63
2023-03-25T16:47:05.707Z,0.80
2023-03-25T16:49:37.340Z,0.68
2023-03-25T16:52:07.678Z,0.60
2023-03-25T16:54:37.722Z,0.50
2023-03-25T16:57:08.124Z,0.80
2023-03-25T16:59:38.016Z,0.90
2023-03-25T17:02:22.699Z,0.80
2023-03-25T17:04:50.993Z,1.00
2023-03-25T17:07:21.005Z,1.00
2023-03-25T17:09:51.740Z,0.60
2023-03-25T17:12:19.735Z,0.90
2023-03-25T17:14:47.743Z,0.70
2023-03-25T17:17:20.655Z,0.50
2023-03-25T17:19:48.590Z,0.70
2023-03-25T17:22:34.224Z,0.50
2023-03-25T17:25:17.895Z,0.80
2023-03-25T17:27:47.589Z,0.57
2023-03-25T17:30:17.938Z,0.90
2023-03-25T17:32:45.124Z,1.05
2023-03-25T17:35:20.332Z,0.70
2023-03-25T17:37:47.606Z,1.08
2023-03-25T17:40:20.704Z,0.88
2023-03-25T17:42:47.824Z,1.00
2023-03-25T17:45:15.456Z,0.80
2023-03-25T17:47:42.452Z,1.00
2023-03-25T17:50:20.368Z,1.08
2023-03-25T17:52:47.374Z,0.90
2023-03-25T17:55:14.243Z,0.90
2023-03-25T17:57:41.537Z,0.90
2023-03-25T18:00:12.270Z,0.90
2023-03-25T18:02:40.839Z,1.20
2023-03-25T18:05:08.221Z,1.00
2023-03-25T18:07:34.723Z,1.23
2023-03-25T18:10:01.527Z,1.10
2023-03-25T18:12:28.184Z,1.05
2023-03-25T18:14:55.224Z,1.10
2023-03-25T18:17:21.724Z,1.20
2023-03-25T18:19:48.950Z,1.15
2023-03-25T18:24:46.285Z,1.23
2023-03-25T18:27:14.371Z,0.60
2023-03-25T18:29:41.178Z,1.27
2023-03-25T18:32:07.760Z,0.90
2023-03-25T18:34:34.563Z,0.90
2023-03-25T18:37:01.172Z,0.88
2023-03-25T18:39:27.984Z,1.08
2023-03-25T18:41:54.621Z,0.80
2023-03-25T18:44:21.300Z,0.70
2023-03-25T18:46:48.236Z,0.90
2023-03-25T18:49:16.843Z,0.90
2023-03-25T18:51:43.812Z,0.70
2023-03-25T18:54:10.330Z,0.98
2023-03-25T18:56:37.908Z,1.00
2023-03-25T18:59:05.388Z,0.82
2023-03-25T19:01:32.735Z,0.90
2023-03-25T19:04:02.750Z,0.73
2023-03-25T19:06:30.827Z,1.02
2023-03-25T19:08:57.899Z,1.20
2023-03-25T19:11:26.010Z,0.70
2023-03-25T19:13:53.047Z,0.90
2023-03-25T19:16:20.075Z,0.85
2023-03-25T19:18:47.536Z,1.15
2023-03-25T19:21:14.997Z,1.08
2023-03-25T19:23:43.111Z,1.70
2023-03-25T19:26:09.753Z,1.08
2023-03-25T19:28:36.630Z,1.20
2023-03-25T19:31:03.652Z,1.13
2023-03-25T19:33:31.506Z,0.90
2023-03-25T19:36:01.271Z,1.20
2023-03-25T19:38:28.703Z,1.08
2023-03-25T19:41:03.480Z,1.00
2023-03-25T19:43:31.059Z,1.00
2023-03-25T19:45:58.115Z,1.10
2023-03-25T19:48:24.882Z,1.30
2023-03-25T19:50:53.978Z,1.10
2023-03-25T19:53:21.206Z,1.13
2023-03-25T19:55:47.737Z,1.10
2023-03-25T19:58:15.024Z,1.33
2023-03-25T20:00:44.878Z,1.30
2023-03-25T20:03:13.598Z,1.40
2023-03-25T20:05:40.701Z,1.48
2023-03-25T20:08:08.418Z,1.52
2023-03-25T20:10:35.012Z,1.52
2023-03-25T20:13:01.500Z,1.20
2023-03-25T20:15:28.081Z,1.50
2023-03-25T20:17:55.804Z,1.55
2023-03-25T20:20:22.438Z,1.50
2023-03-25T20:22:48.970Z,1.50
2023-03-25T20:25:16.190Z,1.40
2023-03-25T20:27:43.145Z,1.42
2023-03-25T20:30:10.699Z,1.60
2023-03-25T20:32:41.243Z,2.03
2023-03-25T20:35:10.490Z,1.40
2023-03-25T20:37:38.602Z,1.33
2023-03-25T20:40:06.228Z,1.55
2023-03-25T20:42:32.985Z,1.23
2023-03-25T20:44:59.386Z,1.70
2023-03-25T20:50:28.216Z,1.10
2023-03-25T20:52:55.618Z,1.25
2023-03-25T20:55:22.207Z,1.25
2023-03-25T20:57:48.849Z,1.55
2023-03-25T21:00:18.135Z,1.30
2023-03-25T21:02:47.797Z,0.90
2023-03-25T21:05:14.356Z,1.20
2023-03-25T21:07:41.404Z,1.15
2023-03-25T21:10:08.896Z,1.17
2023-03-25T21:12:43.619Z,1.05
2023-03-25T21:15:11.193Z,1.17
2023-03-25T21:17:37.808Z,0.93
2023-03-25T21:20:08.337Z,1.17
2023-03-25T21:22:42.478Z,1.13
2023-03-25T21:25:09.755Z,1.17
2023-03-25T21:27:39.515Z,1.20
2023-03-25T21:30:07.493Z,0.90
2023-03-25T21:32:33.936Z,1.10
2023-03-25T21:35:00.523Z,1.25
2023-03-25T21:37:28.011Z,1.50
2023-03-25T21:39:57.878Z,1.23
2023-03-25T21:42:24.390Z,1.08
2023-03-25T21:44:51.086Z,1.23
2023-03-25T21:47:17.882Z,1.13
2023-03-25T21:49:44.661Z,1.33
2023-03-25T21:52:12.889Z,1.08
2023-03-25T21:54:43.414Z,0.75
2023-03-25T21:57:11.315Z,1.00
2023-03-25T21:59:38.049Z,1.10
2023-03-25T22:02:04.833Z,1.20
2023-03-25T22:04:33.639Z,1.17
2023-03-25T22:07:00.378Z,1.23
2023-03-25T22:09:26.893Z,1.63
2023-03-25T22:11:53.448Z,1.67
2023-03-25T22:14:20.486Z,0.85
2023-03-25T22:16:46.955Z,1.10
2023-03-25T22:19:14.002Z,0.80
2023-03-25T22:21:40.893Z,1.25
2023-03-25T22:24:08.167Z,1.15
2023-03-25T22:26:35.460Z,0.90
2023-03-25T22:29:03.394Z,0.80
2023-03-25T22:31:31.212Z,0.73
2023-03-25T22:34:03.403Z,1.38
2023-03-25T22:36:31.106Z,1.15
2023-03-25T22:38:57.759Z,1.17
2023-03-25T22:41:24.276Z,1.10
2023-03-25T22:43:50.868Z,1.20
2023-03-25T22:46:17.526Z,1.13
2023-03-25T22:48:44.192Z,1.27
2023-03-25T22:51:12.469Z,1.13
2023-03-25T22:53:39.417Z,1.08
2023-03-25T22:56:06.669Z,1.38
2023-03-25T22:58:33.587Z,1.13
2023-03-25T23:01:01.132Z,1.08
2023-03-25T23:03:28.380Z,1.08
2023-03-25T23:05:59.909Z,1.00
2023-03-25T23:08:30.124Z,0.90
2023-03-25T23:11:00.824Z,1.30
2023-03-25T23:13:30.062Z,1.20
2023-03-25T23:15:57.993Z,1.02
2023-03-25T23:18:24.855Z,1.10
2023-03-25T23:20:51.353Z,1.10
2023-03-25T23:23:22.126Z,0.77
2023-03-25T23:25:59.596Z,1.10
2023-03-25T23:28:30.831Z,0.88
2023-03-25T23:30:57.604Z,0.80
2023-03-25T23:33:26.837Z,0.95
2023-03-25T23:35:58.022Z,1.23
2023-03-25T23:38:24.941Z,0.82
2023-03-25T23:40:58.488Z,1.00
2023-03-25T23:43:25.555Z,0.85
2023-03-25T23:45:52.364Z,0.75
2023-03-25T23:48:19.211Z,0.75
2023-03-25T23:50:46.980Z,0.98
2023-03-25T23:53:13.701Z,0.73
2023-03-25T23:55:44.970Z,1.00
2023-03-25T23:58:11.504Z,1.25
